Time;durP1;ratioP1;P1;durP2;ratioP2;P2;SDS_P1;SDS_P2;PMS_P1;PMS_P2;Temp;Humidity;BMP_temperature;BMP_pressure;BME280_temperature;BME280_humidity;BME280_pressure;Samples;Min_cycle;Max_cycle;Signal;HPM_P1;HPM_P2
2022/12/08 00:00:34;;;;;;;;;;;8.40;77.60;;;;;;5039103;28;92208;-40
2022/12/08 00:03:00;;;;;;;;;;;8.50;77.70;;;;;;5039336;28;92431;-40
2022/12/08 00:10:53;;;;;;;;;;;8.50;77.70;;;;;;5039233;28;92817;-40
2022/12/08 00:13:19;;;;;;;;;;;8.40;77.60;;;;;;5040950;28;94199;-40
2022/12/08 00:15:44;;;;;;;;;;;8.40;77.60;;;;;;5039224;28;93423;-40
2022/12/08 00:18:10;;;;;;;;;;;8.40;77.70;;;;;;5038468;28;92202;-40
2022/12/08 00:20:35;;;;;;;;;;;8.50;77.70;;;;;;5040396;28;92208;-40
2022/12/08 00:23:03;;;;;;;;;;;8.50;77.70;;;;;;5042887;28;92437;-40
2022/12/08 00:25:28;;;;;;;;;;;8.50;77.70;;;;;;5040722;28;97002;-40
2022/12/08 00:27:54;;;;;;;;;;;8.40;77.60;;;;;;5042795;28;92057;-40
2022/12/08 00:30:19;;;;;;;;;;;8.40;77.60;;;;;;5042771;28;92366;-40
2022/12/08 00:32:45;;;;;;;;;;;8.40;78.20;;;;;;5042089;28;93269;-40
2022/12/08 00:35:10;;;;;;;;;;;8.40;77.70;;;;;;5045258;28;92142;-40
2022/12/08 00:37:36;;;;;;;;;;;8.50;77.70;;;;;;5041286;28;94105;-40
2022/12/08 00:40:01;;;;;;;;;;;8.40;77.60;;;;;;5042516;28;92373;-40
2022/12/08 00:42:27;;;;;;;;;;;8.40;77.70;;;;;;5042562;27;92409;-40
2022/12/08 00:44:53;;;;;;;;;;;8.40;77.80;;;;;;5041661;28;92198;-40
2022/12/08 00:47:18;;;;;;;;;;;8.40;77.70;;;;;;5042161;28;92117;-40
2022/12/08 00:49:44;;;;;;;;;;;8.40;77.70;;;;;;5042050;28;92331;-40
2022/12/08 00:52:11;;;;;;;;;;;8.40;77.70;;;;;;5041842;28;93097;-40
2022/12/08 00:54:37;;;;;;;;;;;8.50;77.70;;;;;;5042576;28;91528;-40
2022/12/08 00:57:02;;;;;;;;;;;8.40;77.70;;;;;;5044976;28;92036;-40
2022/12/08 00:59:28;;;;;;;;;;;8.40;77.80;;;;;;5041799;28;92166;-41
2022/12/08 01:01:53;;;;;;;;;;;8.40;77.70;;;;;;5041717;28;92919;-41
2022/12/08 01:04:19;;;;;;;;;;;8.40;77.70;;;;;;5041481;28;93159;-41
2022/12/08 01:06:45;;;;;;;;;;;8.40;77.80;;;;;;5042257;28;92074;-41
2022/12/08 01:09:12;;;;;;;;;;;8.40;77.80;;;;;;5042182;27;92303;-40
2022/12/08 01:11:37;;;;;;;;;;;8.40;77.80;;;;;;5041155;28;94254;-40
2022/12/08 01:14:03;;;;;;;;;;;8.40;77.70;;;;;;5042140;28;92130;-40
2022/12/08 01:16:33;;;;;;;;;;;8.40;77.80;;;;;;5041979;28;92505;-40
2022/12/08 01:18:59;;;;;;;;;;;8.40;77.80;;;;;;5044354;28;93544;-40
2022/12/08 01:21:24;;;;;;;;;;;8.40;77.70;;;;;;5041910;27;92042;-40
2022/12/08 01:23:50;;;;;;;;;;;8.40;77.80;;;;;;5041295;28;93172;-40
2022/12/08 01:26:16;;;;;;;;;;;8.40;77.80;;;;;;5041203;28;93073;-40
2022/12/08 01:28:42;;;;;;;;;;;8.40;77.80;;;;;;5041695;28;93473;-41
2022/12/08 01:31:12;;;;;;;;;;;8.40;77.90;;;;;;5040588;28;93223;-41
2022/12/08 01:33:38;;;;;;;;;;;8.40;77.80;;;;;;5040238;28;92171;-41
2022/12/08 01:36:04;;;;;;;;;;;8.40;77.80;;;;;;5041510;27;93885;-41
2022/12/08 01:38:30;;;;;;;;;;;8.40;77.80;;;;;;5040805;28;94198;-41
2022/12/08 01:40:55;;;;;;;;;;;8.40;77.80;;;;;;5044759;28;92187;-40
2022/12/08 01:43:21;;;;;;;;;;;8.40;77.80;;;;;;5041537;28;92359;-40
2022/12/08 01:45:46;;;;;;;;;;;8.30;77.80;;;;;;5040870;28;95132;-40
2022/12/08 01:48:17;;;;;;;;;;;8.30;77.80;;;;;;5041426;27;92143;-40
2022/12/08 01:50:42;;;;;;;;;;;8.30;77.80;;;;;;5039980;28;95530;-40
2022/12/08 01:53:10;;;;;;;;;;;8.30;77.80;;;;;;5041473;28;92136;-40
2022/12/08 01:55:45;;;;;;;;;;;8.40;77.90;;;;;;5041360;28;92654;-40
2022/12/08 01:58:16;;;;;;;;;;;8.30;77.80;;;;;;5040534;28;92991;-40
2022/12/08 02:00:42;;;;;;;;;;;8.30;77.80;;;;;;5044307;28;92136;-41
2022/12/08 02:03:10;;;;;;;;;;;8.30;77.80;;;;;;5040765;28;93245;-41
2022/12/08 02:05:37;;;;;;;;;;;8.30;77.80;;;;;;5041080;28;92174;-41
2022/12/08 02:08:05;;;;;;;;;;;8.30;77.80;;;;;;5041576;27;92465;-41
2022/12/08 02:10:32;;;;;;;;;;;8.30;77.80;;;;;;5040139;28;94388;-40
2022/12/08 02:12:58;;;;;;;;;;;8.30;77.90;;;;;;5041011;28;92129;-40
2022/12/08 02:15:30;;;;;;;;;;;8.30;77.80;;;;;;5040295;27;93103;-40
2022/12/08 02:18:06;;;;;;;;;;;8.30;77.80;;;;;;5040627;28;93059;-40
2022/12/08 02:20:31;;;;;;;;;;;8.30;77.80;;;;;;5039484;28;92142;-41
2022/12/08 02:23:23;;;;;;;;;;;8.30;77.80;;;;;;5043477;28;92487;-41
2022/12/08 02:26:00;;;;;;;;;;;8.30;77.80;;;;;;5038085;28;92060;-41
2022/12/08 02:28:41;;;;;;;;;;;8.30;77.80;;;;;;5041058;28;93016;-41
2022/12/08 02:31:22;;;;;;;;;;;8.30;77.80;;;;;;5040085;28;93100;-41
2022/12/08 02:33:47;;;;;;;;;;;8.30;77.80;;;;;;5041272;28;91418;-41
2022/12/08 02:36:18;;;;;;;;;;;8.30;77.70;;;;;;5040432;28;92032;-41
2022/12/08 02:38:44;;;;;;;;;;;8.30;77.70;;;;;;5040212;28;93278;-41
2022/12/08 02:41:28;;;;;;;;;;;8.30;77.80;;;;;;5040184;28;93156;-41
2022/12/08 02:43:56;;;;;;;;;;;8.30;77.80;;;;;;5040341;27;93434;-41
2022/12/08 02:46:26;;;;;;;;;;;8.30;77.80;;;;;;5042961;28;93361;-41
2022/12/08 02:48:51;;;;;;;;;;;8.30;78.40;;;;;;5040049;28;92119;-41
2022/12/08 02:51:17;;;;;;;;;;;8.30;77.80;;;;;;5039842;28;93017;-41
2022/12/08 02:53:43;;;;;;;;;;;8.30;77.80;;;;;;5040375;28;92033;-41
2022/12/08 02:56:27;;;;;;;;;;;8.30;77.80;;;;;;5040590;27;92331;-41
2022/12/08 02:58:52;;;;;;;;;;;8.30;77.70;;;;;;5040323;27;92446;-41
2022/12/08 03:01:18;;;;;;;;;;;8.30;77.80;;;;;;5040326;28;93053;-41
2022/12/08 03:03:46;;;;;;;;;;;8.30;77.80;;;;;;5040382;27;92341;-40
2022/12/08 03:06:23;;;;;;;;;;;8.30;77.80;;;;;;5039180;28;94019;-40
2022/12/08 03:08:52;;;;;;;;;;;8.30;78.40;;;;;;5043316;28;92003;-40
2022/12/08 03:11:23;;;;;;;;;;;8.30;77.80;;;;;;5039607;28;93257;-41
2022/12/08 03:13:51;;;;;;;;;;;8.30;77.80;;;;;;5039722;28;92428;-41
2022/12/08 03:16:22;;;;;;;;;;;8.30;77.90;;;;;;5039763;27;92732;-41
2022/12/08 03:18:50;;;;;;;;;;;8.30;77.90;;;;;;5039618;28;93128;-40
2022/12/08 03:21:16;;;;;;;;;;;8.30;77.80;;;;;;5039993;28;92088;-40
2022/12/08 03:23:43;;;;;;;;;;;8.30;77.80;;;;;;5040734;28;92663;-40
2022/12/08 03:26:16;;;;;;;;;;;8.30;77.80;;;;;;5039278;28;93432;-40
2022/12/08 03:28:41;;;;;;;;;;;8.20;77.80;;;;;;5039900;28;92113;-40
2022/12/08 03:31:10;;;;;;;;;;;8.20;77.80;;;;;;5041616;28;93320;-40
2022/12/08 03:33:37;;;;;;;;;;;8.30;77.80;;;;;;5039638;28;92131;-40
2022/12/08 03:36:04;;;;;;;;;;;8.30;77.80;;;;;;5039850;27;92600;-40
2022/12/08 03:38:37;;;;;;;;;;;8.30;77.80;;;;;;5038831;28;94858;-40
2022/12/08 03:41:17;;;;;;;;;;;8.20;77.80;;;;;;5039478;28;92097;-40
2022/12/08 03:43:53;;;;;;;;;;;8.30;77.80;;;;;;5039963;27;92364;-40
2022/12/08 03:46:20;;;;;;;;;;;8.20;77.80;;;;;;5038807;28;93213;-40
2022/12/08 03:48:46;;;;;;;;;;;8.20;77.80;;;;;;5040029;28;91423;-40
2022/12/08 03:51:12;;;;;;;;;;;8.30;77.90;;;;;;5039794;28;91895;-40
2022/12/08 03:53:37;;;;;;;;;;;8.20;77.90;;;;;;5041873;28;92269;-40
2022/12/08 03:56:04;;;;;;;;;;;8.20;77.80;;;;;;5038042;28;93635;-40
2022/12/08 03:58:29;;;;;;;;;;;8.20;77.90;;;;;;5038736;28;94358;-40
2022/12/08 04:00:55;;;;;;;;;;;8.30;78.00;;;;;;5039386;28;92145;-41
2022/12/08 04:03:20;;;;;;;;;;;8.30;77.90;;;;;;5039376;28;92500;-41
2022/12/08 04:05:46;;;;;;;;;;;8.20;77.90;;;;;;5039032;28;93115;-41
2022/12/08 04:08:11;;;;;;;;;;;8.20;78.00;;;;;;5039155;28;92081;-41
2022/12/08 04:10:37;;;;;;;;;;;8.20;78.00;;;;;;5039162;28;92679;-41
2022/12/08 04:13:02;;;;;;;;;;;8.20;77.90;;;;;;5042486;28;92359;-41
2022/12/08 04:15:28;;;;;;;;;;;8.20;77.90;;;;;;5039271;28;92195;-41
2022/12/08 04:17:53;;;;;;;;;;;8.20;77.90;;;;;;5038538;28;93139;-41
2022/12/08 04:20:19;;;;;;;;;;;8.20;78.00;;;;;;5038447;28;93093;-41
2022/12/08 04:22:44;;;;;;;;;;;8.20;78.10;;;;;;5039168;27;93125;-41
2022/12/08 04:25:10;;;;;;;;;;;8.20;77.90;;;;;;5038432;28;92662;-41
2022/12/08 04:27:35;;;;;;;;;;;8.20;78.00;;;;;;5039015;28;92156;-41
2022/12/08 04:30:01;;;;;;;;;;;8.20;78.10;;;;;;5038986;28;91970;-41
2022/12/08 04:32:26;;;;;;;;;;;8.20;78.10;;;;;;5038551;28;93406;-41
2022/12/08 04:34:52;;;;;;;;;;;8.20;78.10;;;;;;5042123;28;92058;-41
2022/12/08 04:37:17;;;;;;;;;;;8.20;78.10;;;;;;5039094;28;92538;-41
2022/12/08 04:39:43;;;;;;;;;;;8.20;78.20;;;;;;5038650;28;92158;-41
2022/12/08 04:42:08;;;;;;;;;;;8.20;78.20;;;;;;5038979;28;92464;-41
2022/12/08 04:44:34;;;;;;;;;;;8.20;78.80;;;;;;5037392;28;94598;-41
2022/12/08 04:46:59;;;;;;;;;;;8.20;78.20;;;;;;5038509;28;92579;-41
2022/12/08 04:49:25;;;;;;;;;;;8.20;78.20;;;;;;5039074;28;92469;-41
2022/12/08 04:51:50;;;;;;;;;;;8.20;78.10;;;;;;5038170;28;94508;-41
2022/12/08 04:54:16;;;;;;;;;;;8.10;78.10;;;;;;5038572;28;92261;-41
2022/12/08 04:56:41;;;;;;;;;;;8.20;78.20;;;;;;5041248;28;92403;-41
2022/12/08 04:59:07;;;;;;;;;;;8.20;78.10;;;;;;5038827;28;92172;-41
2022/12/08 05:01:32;;;;;;;;;;;8.20;78.20;;;;;;5039146;28;92382;-41
2022/12/08 05:03:58;;;;;;;;;;;8.20;78.20;;;;;;5038051;28;93294;-41
2022/12/08 05:06:23;;;;;;;;;;;8.20;78.10;;;;;;5039519;27;92074;-41
2022/12/08 05:08:49;;;;;;;;;;;8.20;78.20;;;;;;5041533;28;92879;-41
2022/12/08 05:11:14;;;;;;;;;;;8.20;78.20;;;;;;5041319;28;93035;-41
2022/12/08 05:13:40;;;;;;;;;;;8.20;78.20;;;;;;5042102;28;92302;-41
2022/12/08 05:16:07;;;;;;;;;;;8.20;78.20;;;;;;5041975;27;92357;-41
2022/12/08 05:18:33;;;;;;;;;;;8.20;78.30;;;;;;5044453;28;93315;-41
2022/12/08 05:20:58;;;;;;;;;;;8.20;78.20;;;;;;5041670;27;93476;-41
2022/12/08 05:23:24;;;;;;;;;;;8.10;78.20;;;;;;5041299;28;93049;-41
2022/12/08 05:25:49;;;;;;;;;;;8.20;78.20;;;;;;5042312;28;91431;-41
2022/12/08 05:28:15;;;;;;;;;;;8.20;78.20;;;;;;5041747;28;92214;-41
2022/12/08 05:30:40;;;;;;;;;;;8.20;78.20;;;;;;5040851;28;92670;-41
2022/12/08 05:33:06;;;;;;;;;;;8.20;78.10;;;;;;5041016;28;93115;-41
2022/12/08 05:35:31;;;;;;;;;;;8.20;78.20;;;;;;5041516;28;93302;-41
2022/12/08 05:37:57;;;;;;;;;;;8.20;78.20;;;;;;5040983;28;93122;-41
2022/12/08 05:40:22;;;;;;;;;;;8.20;78.20;;;;;;5044534;28;92253;-41
2022/12/08 05:42:48;;;;;;;;;;;8.10;78.10;;;;;;5041096;28;93060;-41
2022/12/08 05:45:13;;;;;;;;;;;8.20;78.20;;;;;;5041253;28;92145;-41
2022/12/08 05:47:38;;;;;;;;;;;8.20;78.20;;;;;;5041505;28;92402;-41
2022/12/08 05:50:05;;;;;;;;;;;8.10;78.20;;;;;;5041395;28;92370;-41
2022/12/08 05:52:31;;;;;;;;;;;8.20;78.20;;;;;;5039689;28;92181;-41
2022/12/08 05:54:56;;;;;;;;;;;8.10;78.20;;;;;;5041280;27;92366;-41
2022/12/08 05:57:21;;;;;;;;;;;8.20;78.10;;;;;;5040290;28;94135;-41
2022/12/08 05:59:47;;;;;;;;;;;8.20;78.10;;;;;;5041305;28;92060;-41
2022/12/08 06:02:12;;;;;;;;;;;8.10;78.10;;;;;;5044010;28;92341;-41
2022/12/08 06:04:38;;;;;;;;;;;8.10;78.10;;;;;;5041211;28;92169;-41
2022/12/08 06:07:03;;;;;;;;;;;8.20;78.20;;;;;;5041118;27;92333;-41
2022/12/08 06:09:29;;;;;;;;;;;8.10;78.10;;;;;;5040411;28;92320;-41
2022/12/08 06:11:54;;;;;;;;;;;8.20;78.10;;;;;;5041104;28;92212;-41
2022/12/08 06:14:20;;;;;;;;;;;8.10;78.10;;;;;;5041515;28;93094;-40
2022/12/08 06:16:45;;;;;;;;;;;8.10;78.10;;;;;;5040519;28;93063;-40
2022/12/08 06:19:11;;;;;;;;;;;8.10;78.10;;;;;;5040180;28;92180;-40
2022/12/08 06:21:36;;;;;;;;;;;8.20;78.10;;;;;;5042975;28;93005;-40
2022/12/08 06:24:02;;;;;;;;;;;8.20;78.00;;;;;;5040850;28;92247;-41
2022/12/08 06:26:27;;;;;;;;;;;8.20;78.00;;;;;;5040620;28;92473;-41
2022/12/08 06:28:53;;;;;;;;;;;8.20;78.10;;;;;;5040418;28;93251;-41
2022/12/08 06:31:20;;;;;;;;;;;8.10;78.10;;;;;;5040387;28;92230;-41
2022/12/08 06:33:46;;;;;;;;;;;8.20;78.10;;;;;;5040744;27;92295;-41
2022/12/08 06:36:12;;;;;;;;;;;8.20;78.10;;;;;;5040062;28;93059;-41
2022/12/08 06:38:38;;;;;;;;;;;8.10;78.10;;;;;;5041150;28;91395;-41
2022/12/08 06:41:04;;;;;;;;;;;8.20;78.10;;;;;;5040531;27;91978;-41
2022/12/08 06:43:30;;;;;;;;;;;8.20;78.10;;;;;;5042972;28;92991;-41
2022/12/08 06:45:56;;;;;;;;;;;8.20;78.00;;;;;;5039511;28;93020;-41
2022/12/08 06:48:21;;;;;;;;;;;8.20;78.00;;;;;;5039947;28;93159;-41
2022/12/08 06:50:47;;;;;;;;;;;8.20;77.90;;;;;;5040313;28;92241;-41
2022/12/08 06:53:13;;;;;;;;;;;8.20;77.90;;;;;;5040663;28;92722;-41
2022/12/08 06:55:46;;;;;;;;;;;8.20;78.00;;;;;;5039409;28;93215;-41
2022/12/08 06:58:11;;;;;;;;;;;8.20;78.00;;;;;;5040133;28;92117;-41
2022/12/08 07:00:37;;;;;;;;;;;8.20;78.00;;;;;;5040276;28;92563;-41
2022/12/08 07:03:03;;;;;;;;;;;8.20;78.00;;;;;;5040203;28;92222;-41
2022/12/08 07:05:28;;;;;;;;;;;8.20;78.10;;;;;;5043543;28;92415;-41
2022/12/08 07:07:54;;;;;;;;;;;8.20;77.90;;;;;;5039803;28;93167;-40
2022/12/08 07:10:19;;;;;;;;;;;8.20;78.00;;;;;;5039365;28;93008;-40
2022/12/08 07:12:45;;;;;;;;;;;8.20;78.00;;;;;;5040089;28;93416;-40
2022/12/08 07:15:10;;;;;;;;;;;8.20;77.90;;;;;;5039320;28;94325;-40
2022/12/08 07:17:36;;;;;;;;;;;8.20;78.00;;;;;;5039966;28;92115;-40
2022/12/08 07:20:01;;;;;;;;;;;8.20;78.00;;;;;;5039955;28;92430;-40
2022/12/08 07:22:27;;;;;;;;;;;8.20;78.00;;;;;;5039606;28;93291;-40
2022/12/08 07:24:52;;;;;;;;;;;8.20;78.10;;;;;;5039871;28;92194;-41
2022/12/08 07:27:18;;;;;;;;;;;8.20;78.10;;;;;;5042968;28;92358;-41
2022/12/08 07:29:43;;;;;;;;;;;8.20;78.00;;;;;;5038732;28;92151;-41
2022/12/08 07:32:09;;;;;;;;;;;8.20;78.00;;;;;;5039645;28;92453;-41
2022/12/08 07:34:34;;;;;;;;;;;8.20;78.00;;;;;;5038192;28;95789;-41
2022/12/08 07:37:00;;;;;;;;;;;8.20;78.00;;;;;;5039779;28;91869;-41
2022/12/08 07:39:26;;;;;;;;;;;8.20;78.00;;;;;;5039409;27;92187;-41
2022/12/08 07:41:51;;;;;;;;;;;8.20;78.00;;;;;;5039257;28;92669;-41
2022/12/08 07:44:17;;;;;;;;;;;8.20;78.00;;;;;;5039654;28;92632;-41
2022/12/08 07:46:42;;;;;;;;;;;8.20;78.00;;;;;;5039237;27;93751;-41
2022/12/08 07:49:08;;;;;;;;;;;8.20;77.90;;;;;;5042165;28;92266;-41
2022/12/08 07:51:33;;;;;;;;;;;8.20;78.00;;;;;;5039970;28;91936;-41
2022/12/08 07:53:59;;;;;;;;;;;8.20;77.90;;;;;;5039054;28;93373;-41
2022/12/08 07:56:24;;;;;;;;;;;8.20;77.90;;;;;;5039236;28;92261;-41
2022/12/08 07:58:50;;;;;;;;;;;8.30;77.90;;;;;;5038912;28;93065;-41
2022/12/08 08:01:23;;;;;;;;;;;8.20;77.80;;;;;;5039003;28;93008;-41
2022/12/08 08:03:49;;;;;;;;;;;8.20;78.00;;;;;;5039150;28;92151;-40
2022/12/08 08:06:14;;;;;;;;;;;8.20;77.80;;;;;;5039051;27;93674;-40
2022/12/08 08:08:40;;;;;;;;;;;8.30;77.90;;;;;;5038460;28;92853;-41
2022/12/08 08:11:06;;;;;;;;;;;8.30;77.90;;;;;;5042085;28;92111;-41
2022/12/08 08:13:31;;;;;;;;;;;8.20;77.90;;;;;;5038580;28;93490;-41
2022/12/08 08:16:07;;;;;;;;;;;8.30;77.80;;;;;;5039818;28;91339;-40
2022/12/08 08:18:33;;;;;;;;;;;8.30;77.80;;;;;;5039148;27;92088;-40
2022/12/08 08:20:59;;;;;;;;;;;8.30;77.80;;;;;;5038784;28;93069;-40
2022/12/08 08:23:25;;;;;;;;;;;8.30;77.70;;;;;;5038139;28;93125;-40
2022/12/08 08:25:50;;;;;;;;;;;8.30;77.80;;;;;;5039323;28;93337;-40
2022/12/08 08:28:16;;;;;;;;;;;8.30;77.80;;;;;;5038279;28;93473;-40
2022/12/08 08:30:41;;;;;;;;;;;8.30;77.70;;;;;;5042075;28;92195;-40
2022/12/08 08:33:07;;;;;;;;;;;8.30;77.70;;;;;;5038502;28;93149;-41
2022/12/08 08:35:33;;;;;;;;;;;8.30;77.70;;;;;;5039314;28;92145;-41
2022/12/08 08:37:58;;;;;;;;;;;8.30;77.70;;;;;;5038964;27;92756;-41
2022/12/08 08:40:24;;;;;;;;;;;8.30;77.70;;;;;;5039030;28;92293;-41
2022/12/08 08:42:49;;;;;;;;;;;8.30;77.70;;;;;;5042098;27;92043;-41
2022/12/08 08:45:15;;;;;;;;;;;8.30;77.80;;;;;;5041816;27;93860;-40
2022/12/08 08:47:40;;;;;;;;;;;8.30;77.70;;;;;;5041375;28;94046;-41
2022/12/08 08:50:06;;;;;;;;;;;8.30;77.70;;;;;;5042417;28;92161;-41
2022/12/08 08:52:31;;;;;;;;;;;8.40;77.70;;;;;;5044982;28;92462;-41
2022/12/08 08:54:57;;;;;;;;;;;8.40;77.70;;;;;;5042317;28;92092;-41
2022/12/08 08:57:22;;;;;;;;;;;8.40;77.70;;;;;;5042478;28;92419;-41
2022/12/08 08:59:48;;;;;;;;;;;8.40;77.60;;;;;;5041732;28;93015;-41
2022/12/08 09:02:17;;;;;;;;;;;8.40;77.70;;;;;;5042167;28;92186;-41
2022/12/08 09:04:43;;;;;;;;;;;8.40;77.70;;;;;;5042862;27;92371;-41
2022/12/08 09:07:08;;;;;;;;;;;8.40;77.70;;;;;;5041646;28;93179;-41
2022/12/08 09:09:34;;;;;;;;;;;8.40;77.80;;;;;;5042198;28;92084;-41
2022/12/08 09:11:59;;;;;;;;;;;8.40;77.80;;;;;;5041543;28;93150;-41
2022/12/08 09:14:26;;;;;;;;;;;8.40;77.90;;;;;;5044540;28;93202;-41
2022/12/08 09:16:52;;;;;;;;;;;8.40;77.80;;;;;;5042146;27;92494;-41
2022/12/08 09:19:17;;;;;;;;;;;8.40;77.90;;;;;;5041442;28;93194;-41
2022/12/08 09:21:43;;;;;;;;;;;8.40;77.90;;;;;;5041788;28;92159;-41
2022/12/08 09:24:14;;;;;;;;;;;8.50;77.90;;;;;;5041694;28;92373;-41
2022/12/08 09:26:40;;;;;;;;;;;8.50;77.80;;;;;;5041188;28;94429;-41
2022/12/08 09:29:06;;;;;;;;;;;8.50;78.00;;;;;;5042361;28;91411;-41
2022/12/08 09:31:32;;;;;;;;;;;8.50;77.90;;;;;;5041427;28;91998;-41
2022/12/08 09:33:58;;;;;;;;;;;8.50;78.10;;;;;;5041020;28;93117;-41
2022/12/08 09:36:23;;;;;;;;;;;8.50;78.10;;;;;;5043877;28;93065;-41
2022/12/08 09:38:50;;;;;;;;;;;8.50;78.10;;;;;;5040737;28;93137;-41
2022/12/08 09:41:22;;;;;;;;;;;8.50;78.00;;;;;;5041521;28;92326;-41
2022/12/08 09:43:50;;;;;;;;;;;8.50;78.10;;;;;;5041474;28;92553;-41
2022/12/08 09:46:16;;;;;;;;;;;8.50;78.10;;;;;;5040087;28;94113;-41
2022/12/08 09:48:46;;;;;;;;;;;8.60;78.20;;;;;;5041594;28;92229;-41
2022/12/08 09:51:13;;;;;;;;;;;8.50;78.10;;;;;;5040745;27;94147;-41
2022/12/08 09:53:42;;;;;;;;;;;8.50;78.20;;;;;;5040294;27;92522;-41
2022/12/08 09:56:15;;;;;;;;;;;8.60;78.20;;;;;;5041274;28;92314;-41
2022/12/08 09:58:41;;;;;;;;;;;8.60;78.30;;;;;;5043858;27;92345;-41
2022/12/08 10:01:10;;;;;;;;;;;8.50;78.30;;;;;;5040794;28;93152;-41
2022/12/08 10:03:36;;;;;;;;;;;8.60;78.30;;;;;;5041057;27;93384;-41
2022/12/08 10:06:20;;;;;;;;;;;8.60;78.30;;;;;;5040669;28;93256;-41
2022/12/08 10:08:54;;;;;;;;;;;8.60;78.40;;;;;;5041135;27;92227;-41
2022/12/08 10:11:26;;;;;;;;;;;8.60;78.40;;;;;;5041125;28;92408;-41
2022/12/08 10:13:57;;;;;;;;;;;8.60;78.40;;;;;;5040232;28;94473;-41
2022/12/08 10:16:42;;;;;;;;;;;8.60;78.50;;;;;;5040955;28;92196;-41
2022/12/08 10:19:16;;;;;;;;;;;8.60;78.60;;;;;;5043180;28;92464;-41
2022/12/08 10:21:42;;;;;;;;;;;8.60;78.70;;;;;;5040887;28;92072;-41
2022/12/08 10:24:25;;;;;;;;;;;8.60;78.60;;;;;;5040714;27;93818;-41
2022/12/08 10:26:52;;;;;;;;;;;8.60;78.70;;;;;;5039841;28;95741;-41
2022/12/08 10:29:18;;;;;;;;;;;8.60;78.70;;;;;;5040848;28;92177;-41
2022/12/08 10:31:43;;;;;;;;;;;8.60;78.70;;;;;;5040597;28;92344;-41
2022/12/08 10:34:17;;;;;;;;;;;8.60;78.70;;;;;;5040189;28;93056;-41
2022/12/08 10:36:48;;;;;;;;;;;8.60;78.80;;;;;;5040510;28;92134;-41
2022/12/08 10:39:33;;;;;;;;;;;8.70;78.80;;;;;;5040327;27;93641;-41
2022/12/08 10:42:05;;;;;;;;;;;8.70;78.70;;;;;;5043151;28;92989;-41
2022/12/08 10:44:31;;;;;;;;;;;8.70;78.70;;;;;;5040898;27;92340;-41
2022/12/08 10:46:56;;;;;;;;;;;8.70;78.70;;;;;;5039796;28;93001;-41
2022/12/08 10:49:24;;;;;;;;;;;8.70;78.80;;;;;;5040446;28;92027;-41
2022/12/08 10:51:50;;;;;;;;;;;8.70;78.80;;;;;;5039548;28;93106;-41
2022/12/08 10:54:31;;;;;;;;;;;8.70;78.80;;;;;;5039811;28;93266;-41
2022/12/08 10:56:57;;;;;;;;;;;8.80;78.80;;;;;;5040480;28;92149;-41
2022/12/08 10:59:24;;;;;;;;;;;8.80;78.90;;;;;;5040392;28;92662;-41
2022/12/08 11:01:54;;;;;;;;;;;8.70;78.90;;;;;;5039536;28;94412;-41
2022/12/08 11:04:32;;;;;;;;;;;8.80;79.00;;;;;;5042672;28;92095;-41
2022/12/08 11:06:57;;;;;;;;;;;8.80;79.10;;;;;;5039725;28;93007;-41
2022/12/08 11:09:29;;;;;;;;;;;8.80;79.30;;;;;;5040672;28;91608;-41
2022/12/08 11:12:11;;;;;;;;;;;8.80;79.30;;;;;;5040242;28;91990;-41
2022/12/08 11:14:36;;;;;;;;;;;8.80;79.20;;;;;;5039363;28;93256;-41
2022/12/08 11:17:04;;;;;;;;;;;8.80;79.20;;;;;;5039133;28;94259;-41
2022/12/08 11:19:30;;;;;;;;;;;8.80;79.30;;;;;;5039670;28;94669;-41
2022/12/08 11:21:55;;;;;;;;;;;8.80;79.30;;;;;;5039640;28;92355;-41
2022/12/08 11:24:26;;;;;;;;;;;8.80;79.30;;;;;;5039716;28;92152;-41
2022/12/08 11:27:01;;;;;;;;;;;8.80;79.30;;;;;;5042291;27;93882;-41
2022/12/08 11:29:27;;;;;;;;;;;8.80;79.30;;;;;;5039622;28;92115;-41
2022/12/08 11:31:58;;;;;;;;;;;8.80;79.30;;;;;;5039557;28;92651;-41
2022/12/08 11:34:26;;;;;;;;;;;8.80;79.30;;;;;;5039817;28;92357;-41
2022/12/08 11:36:53;;;;;;;;;;;8.90;79.30;;;;;;5039828;28;92170;-41
2022/12/08 11:39:19;;;;;;;;;;;8.90;79.30;;;;;;5039691;27;92070;-41
2022/12/08 11:41:45;;;;;;;;;;;8.90;79.30;;;;;;5038405;28;94668;-41
2022/12/08 11:44:13;;;;;;;;;;;8.90;79.20;;;;;;5039608;28;91994;-41
2022/12/08 11:46:42;;;;;;;;;;;8.90;79.40;;;;;;5039440;28;92388;-41
2022/12/08 11:49:12;;;;;;;;;;;9.00;79.40;;;;;;5041854;28;93272;-42
2022/12/08 11:51:58;;;;;;;;;;;8.90;79.40;;;;;;5039417;28;92634;-41
2022/12/08 11:54:35;;;;;;;;;;;8.90;79.40;;;;;;5038618;28;94230;-41
2022/12/08 11:57:02;;;;;;;;;;;8.90;79.40;;;;;;5039320;28;92177;-41
2022/12/08 11:59:30;;;;;;;;;;;9.00;79.50;;;;;;5039851;27;92041;-41
2022/12/08 12:01:57;;;;;;;;;;;9.00;79.40;;;;;;5038622;28;93229;-41
2022/12/08 12:04:28;;;;;;;;;;;9.00;79.40;;;;;;5039264;28;92436;-41
2022/12/08 12:06:54;;;;;;;;;;;9.00;79.50;;;;;;5038679;28;93015;-41
2022/12/08 12:09:37;;;;;;;;;;;9.00;79.50;;;;;;5038596;28;94677;-41
2022/12/08 12:12:12;;;;;;;;;;;9.00;79.60;;;;;;5042368;28;92150;-41
2022/12/08 12:14:46;;;;;;;;;;;9.00;79.50;;;;;;5038859;28;93007;-41
2022/12/08 12:17:17;;;;;;;;;;;9.00;79.60;;;;;;5044040;27;92194;-41
2022/12/08 12:19:45;;;;;;;;;;;9.10;79.50;;;;;;5045955;28;93844;-41
2022/12/08 12:22:15;;;;;;;;;;;9.10;79.60;;;;;;5045345;28;93313;-41
2022/12/08 12:24:42;;;;;;;;;;;9.10;79.50;;;;;;5046284;28;91431;-41
2022/12/08 12:27:14;;;;;;;;;;;9.10;79.60;;;;;;5045915;27;92263;-41
2022/12/08 12:30:12;;;;;;;;;;;9.10;79.50;;;;;;5045057;28;93249;-41
2022/12/08 12:32:42;;;;;;;;;;;9.10;79.50;;;;;;5023827;28;94143;-41
2022/12/08 12:35:14;;;;;;;;;;;9.10;79.70;;;;;;5045118;28;93292;-41
2022/12/08 12:37:41;;;;;;;;;;;9.10;79.60;;;;;;5045884;28;92078;-41
2022/12/08 12:40:16;;;;;;;;;;;9.10;79.70;;;;;;5045688;27;92351;-41
2022/12/08 12:42:43;;;;;;;;;;;9.10;79.70;;;;;;5045032;28;93210;-41
2022/12/08 12:45:20;;;;;;;;;;;9.10;79.70;;;;;;5045367;28;92164;-41
2022/12/08 12:47:52;;;;;;;;;;;9.10;79.70;;;;;;5045838;27;92241;-40
2022/12/08 12:50:32;;;;;;;;;;;9.10;79.70;;;;;;5045707;28;92545;-42
2022/12/08 12:53:03;;;;;;;;;;;9.10;79.70;;;;;;5045342;28;92191;-41
2022/12/08 12:55:44;;;;;;;;;;;9.20;79.70;;;;;;5048089;28;92481;-41
2022/12/08 12:58:30;;;;;;;;;;;9.20;79.80;;;;;;5044762;28;93123;-41
2022/12/08 13:01:11;;;;;;;;;;;9.20;79.80;;;;;;5045383;27;93371;-41
2022/12/08 13:03:36;;;;;;;;;;;9.20;79.80;;;;;;5044731;28;93001;-41
2022/12/08 13:06:02;;;;;;;;;;;9.20;79.80;;;;;;5045451;28;92603;-41
2022/12/08 13:08:28;;;;;;;;;;;9.20;79.90;;;;;;5045353;28;92795;-41
2022/12/08 13:11:04;;;;;;;;;;;9.20;79.90;;;;;;5044787;28;93114;-41
2022/12/08 13:13:30;;;;;;;;;;;9.20;79.90;;;;;;5045057;28;92138;-41
2022/12/08 13:16:16;;;;;;;;;;;9.30;79.80;;;;;;5045583;27;92350;-41
2022/12/08 13:18:49;;;;;;;;;;;9.20;79.80;;;;;;5047078;28;93195;-41
2022/12/08 13:21:17;;;;;;;;;;;9.30;79.80;;;;;;5045284;28;92142;-41
2022/12/08 13:23:50;;;;;;;;;;;9.20;79.80;;;;;;5044010;28;94127;-41
2022/12/08 13:26:22;;;;;;;;;;;9.30;79.90;;;;;;5045153;28;92469;-41
2022/12/08 13:29:02;;;;;;;;;;;9.30;79.90;;;;;;5042224;28;92545;-41
2022/12/08 13:31:40;;;;;;;;;;;9.30;80.50;;;;;;5040815;28;94639;-41
2022/12/08 13:34:10;;;;;;;;;;;9.30;80.00;;;;;;5041357;28;92191;-41
2022/12/08 13:36:38;;;;;;;;;;;9.30;80.00;;;;;;5041519;27;92181;-41
2022/12/08 13:39:05;;;;;;;;;;;9.30;80.10;;;;;;5040735;28;92916;-41
2022/12/08 13:41:33;;;;;;;;;;;9.30;80.00;;;;;;5045166;28;91476;-41
2022/12/08 13:44:03;;;;;;;;;;;9.30;80.00;;;;;;5040989;28;93198;-41
2022/12/08 13:46:35;;;;;;;;;;;9.30;79.90;;;;;;5040952;28;92378;-41
2022/12/08 13:49:01;;;;;;;;;;;9.30;79.90;;;;;;5041101;28;92987;-41
2022/12/08 13:51:31;;;;;;;;;;;9.30;79.90;;;;;;5040753;28;93049;-41
2022/12/08 13:54:08;;;;;;;;;;;9.40;79.80;;;;;;5041185;28;92175;-41
2022/12/08 13:56:40;;;;;;;;;;;9.40;79.80;;;;;;5041425;28;92433;-41
2022/12/08 13:59:22;;;;;;;;;;;9.40;79.80;;;;;;5040457;28;93225;-41
2022/12/08 14:01:48;;;;;;;;;;;9.40;79.90;;;;;;5041481;28;92116;-41
2022/12/08 14:04:18;;;;;;;;;;;9.40;79.90;;;;;;5043446;28;92596;-41
2022/12/08 14:06:45;;;;;;;;;;;9.40;80.00;;;;;;5041615;28;91811;-41
2022/12/08 14:09:13;;;;;;;;;;;9.40;79.80;;;;;;5041251;27;92143;-41
2022/12/08 14:11:40;;;;;;;;;;;9.40;79.90;;;;;;5040475;28;94602;-41
2022/12/08 14:14:18;;;;;;;;;;;9.40;79.90;;;;;;5040401;28;93101;-41
2022/12/08 14:16:54;;;;;;;;;;;9.40;80.00;;;;;;5041171;28;93324;-41
2022/12/08 14:19:19;;;;;;;;;;;9.40;79.90;;;;;;5040375;28;93494;-41
2022/12/08 14:21:45;;;;;;;;;;;9.40;79.90;;;;;;5041001;28;92214;-41
2022/12/08 14:24:11;;;;;;;;;;;9.50;79.90;;;;;;5040884;27;92824;-41
2022/12/08 14:26:37;;;;;;;;;;;9.50;79.90;;;;;;5043611;28;93026;-41
2022/12/08 14:29:05;;;;;;;;;;;9.50;80.00;;;;;;5040538;27;93830;-41
2022/12/08 14:31:30;;;;;;;;;;;9.50;80.00;;;;;;5040387;28;92429;-41
2022/12/08 14:33:56;;;;;;;;;;;9.50;80.00;;;;;;5040899;28;92305;-41
2022/12/08 14:36:22;;;;;;;;;;;9.50;79.90;;;;;;5040864;28;93515;-41
2022/12/08 14:38:48;;;;;;;;;;;9.50;79.90;;;;;;5038857;28;94142;-41
2022/12/08 14:41:13;;;;;;;;;;;9.50;80.00;;;;;;5040662;28;92180;-41